createdAt,value
2023-02-03T00:00:10.831Z,49340.19
2023-02-03T00:01:13.065Z,47149.36
2023-02-03T00:02:15.451Z,45729.82
2023-02-03T00:03:17.785Z,46377.01
2023-02-03T00:04:20.007Z,46692.13
2023-02-03T00:05:22.271Z,48105.01
2023-02-03T00:06:24.740Z,46609.10
2023-02-03T00:07:27.134Z,46837.20
2023-02-03T00:08:29.615Z,46613.10
2023-02-03T00:09:32.115Z,47670.69
2023-02-03T00:10:34.861Z,44897.75
2023-02-03T00:11:37.274Z,47378.50
2023-02-03T00:12:39.825Z,46646.11
2023-02-03T00:13:42.338Z,48601.44
2023-02-03T00:14:44.910Z,46687.13
2023-02-03T00:15:47.350Z,46477.04
2023-02-03T00:16:49.791Z,46977.27
2023-02-03T00:17:52.281Z,44934.75
2023-02-03T00:18:54.737Z,44868.75
2023-02-03T00:19:57.272Z,45749.83
2023-02-03T00:21:00.193Z,47183.38
2023-02-03T00:22:02.630Z,46602.09
2023-02-03T00:23:05.117Z,45962.88
2023-02-03T00:24:10.361Z,46529.06
2023-02-03T00:25:12.795Z,45706.82
2023-02-03T00:26:15.303Z,46628.11
2023-02-03T00:27:17.502Z,46152.93
2023-02-03T00:28:19.789Z,46020.89
2023-02-03T00:29:21.979Z,46353.00
2023-02-03T00:30:24.834Z,46614.10
2023-02-03T00:31:27.450Z,46436.03
2023-02-03T00:32:29.868Z,46276.97
2023-02-03T00:33:32.156Z,45983.88
2023-02-03T00:34:34.406Z,45641.81
2023-02-03T00:35:36.857Z,47250.42
2023-02-03T00:36:41.371Z,45980.88
2023-02-03T00:37:43.615Z,44967.75
2023-02-03T00:38:46.048Z,46747.16
2023-02-03T00:39:48.659Z,47069.32
2023-02-03T00:40:51.155Z,49095.93
2023-02-03T00:41:53.786Z,47096.33
2023-02-03T00:42:56.197Z,48037.96
2023-02-03T00:43:58.735Z,47790.77
2023-02-03T00:45:01.199Z,46660.12
2023-02-03T00:46:04.032Z,46869.21
2023-02-03T00:47:06.706Z,47929.87
2023-02-03T00:48:09.210Z,47361.48
2023-02-03T00:49:11.632Z,46210.95
2023-02-03T00:50:14.093Z,48139.04
2023-02-03T00:51:16.707Z,47273.43
2023-02-03T00:52:19.213Z,48502.35
2023-02-03T00:53:21.895Z,47986.92
2023-02-03T00:54:27.456Z,46273.97
2023-02-03T00:55:29.911Z,47590.63
2023-02-03T00:56:32.392Z,47988.92
2023-02-03T00:57:35.147Z,47151.36
2023-02-03T00:58:37.363Z,47128.35
2023-02-03T00:59:39.661Z,45024.75
2023-02-03T01:00:41.874Z,47805.78
2023-02-03T01:01:44.169Z,47488.57
2023-02-03T01:02:46.677Z,48074.99
2023-02-03T01:03:48.941Z,46141.93
2023-02-03T01:04:51.251Z,47063.32
2023-02-03T01:05:53.546Z,45207.76
2023-02-03T01:06:55.762Z,47294.45
2023-02-03T01:07:58.173Z,44643.76
2023-02-03T01:09:00.410Z,47180.38
2023-02-03T01:10:02.877Z,49416.28
2023-02-03T01:11:05.038Z,48104.01
2023-02-03T01:12:07.263Z,47299.45
2023-02-03T01:13:09.664Z,46257.96
2023-02-03T01:14:12.052Z,49297.14
2023-02-03T01:15:14.553Z,46235.96
2023-02-03T01:16:17.020Z,48493.34
2023-02-03T01:17:19.440Z,47531.59
2023-02-03T01:18:22.001Z,47478.56
2023-02-03T01:19:24.467Z,48058.97
2023-02-03T01:20:27.534Z,46704.14
2023-02-03T01:21:30.268Z,47985.92
2023-02-03T01:22:32.686Z,49420.28
2023-02-03T01:23:35.274Z,47707.71
2023-02-03T01:24:37.779Z,46890.23
2023-02-03T01:25:40.179Z,46188.95
2023-02-03T01:26:42.638Z,47738.73
2023-02-03T01:27:45.206Z,47864.82
2023-02-03T01:28:47.815Z,47946.89
2023-02-03T01:29:50.309Z,45688.82
2023-02-03T01:30:53.031Z,47750.74
2023-02-03T01:31:55.756Z,47853.82
2023-02-03T01:32:58.236Z,49283.13
2023-02-03T01:34:01.224Z,49364.22
2023-02-03T01:35:03.680Z,49346.20
2023-02-03T01:36:06.140Z,49136.97
2023-02-03T01:37:08.421Z,47819.79
2023-02-03T01:38:10.871Z,49123.96
2023-02-03T01:39:13.427Z,49558.44
2023-02-03T01:40:15.950Z,45533.79
2023-02-03T01:41:18.521Z,48820.65
2023-02-03T01:42:21.013Z,49444.31
2023-02-03T01:43:23.632Z,50059.06
2023-02-03T01:44:26.078Z,48647.48
2023-02-03T01:45:28.636Z,48216.10
2023-02-03T01:46:31.116Z,48352.21
2023-02-03T01:47:33.538Z,49286.13
2023-02-03T01:48:35.979Z,49348.20
2023-02-03T01:49:38.545Z,47750.74
2023-02-03T01:50:40.978Z,49501.37
2023-02-03T01:51:43.197Z,49234.07
2023-02-03T01:52:45.670Z,47860.82
2023-02-03T01:53:48.123Z,47792.77
2023-02-03T01:54:50.750Z,52729.41
2023-02-03T01:55:53.199Z,52488.95
2023-02-03T01:56:55.608Z,54866.19
2023-02-03T01:57:58.050Z,54719.83
2023-02-03T01:59:00.215Z,55281.25
2023-02-03T02:00:02.397Z,71935.48
2023-02-03T02:01:04.647Z,55973.12
2023-02-03T02:02:06.993Z,52855.66
2023-02-03T02:03:09.275Z,51637.41
2023-02-03T02:04:11.440Z,50831.13
2023-02-03T02:05:13.711Z,52584.13
2023-02-03T02:06:15.862Z,52093.21
2023-02-03T02:07:18.315Z,51835.75
2023-02-03T02:08:20.622Z,51744.59
2023-02-03T02:09:23.250Z,50293.37
2023-02-03T02:10:26.465Z,50685.92
2023-02-03T02:11:29.086Z,50539.71
2023-02-03T02:12:31.975Z,57890.92
2023-02-03T02:13:34.422Z,50031.02
2023-02-03T02:15:40.101Z,50989.37
2023-02-03T02:16:42.724Z,51694.51
2023-02-03T02:17:45.133Z,49465.33
2023-02-03T02:18:47.587Z,49313.16
2023-02-03T02:19:49.986Z,50141.16
2023-02-03T02:20:52.597Z,53622.27
2023-02-03T02:21:55.128Z,49992.97
2023-02-03T02:22:57.575Z,50270.34
2023-02-03T02:24:00.083Z,51378.98
2023-02-03T02:25:02.652Z,51610.37
2023-02-03T02:26:05.313Z,51581.32
2023-02-03T02:27:07.613Z,49252.09
2023-02-03T02:28:10.269Z,52429.83
2023-02-03T02:29:12.679Z,50894.22
2023-02-03T02:30:15.231Z,50358.46
2023-02-03T02:31:18.162Z,49892.84
2023-02-03T02:32:20.450Z,52307.61
2023-02-03T02:33:22.706Z,51064.48
2023-02-03T02:34:24.925Z,50623.83
2023-02-03T02:35:27.405Z,50782.06
2023-02-03T02:36:29.999Z,52757.46
2023-02-03T02:37:32.513Z,52179.37
2023-02-03T02:38:34.976Z,50131.15
2023-02-03T02:39:37.343Z,54112.37
2023-02-03T02:40:39.784Z,52290.57
2023-02-03T02:41:42.394Z,53810.68
2023-02-03T02:42:44.904Z,55599.09
2023-02-03T02:43:47.519Z,54450.17
2023-02-03T02:44:50.098Z,54723.84
2023-02-03T02:45:52.636Z,56576.85
2023-02-03T02:46:55.118Z,57927.04
2023-02-03T02:47:57.555Z,57166.62
2023-02-03T02:49:00.149Z,55997.18
2023-02-03T02:50:02.597Z,55348.43
2023-02-03T02:51:05.002Z,56403.34
2023-02-03T02:52:07.547Z,55139.89
2023-02-03T02:53:09.893Z,55189.01
2023-02-03T02:54:12.334Z,55359.46
2023-02-03T02:55:14.824Z,56007.21
2023-02-03T02:56:17.296Z,55878.86
2023-02-03T02:57:20.228Z,55553.97
2023-02-03T02:58:22.938Z,56995.10
2023-02-03T02:59:25.564Z,55925.99
2023-02-03T03:00:28.359Z,56380.27
2023-02-03T03:01:31.624Z,55716.41
2023-02-03T03:02:34.061Z,54924.34
2023-02-03T03:03:36.358Z,55019.58
2023-02-03T03:04:38.868Z,57022.18
2023-02-03T03:05:41.346Z,56982.05
2023-02-03T03:06:43.909Z,56778.44
2023-02-03T03:07:46.358Z,56425.40
2023-02-03T03:08:48.861Z,56818.56
2023-02-03T03:09:53.859Z,58079.54
2023-02-03T03:10:56.308Z,57723.38
2023-02-03T03:11:58.738Z,56854.67
2023-02-03T03:13:01.218Z,57274.96
2023-02-03T03:15:19.634Z,58346.43
2023-02-03T03:16:22.102Z,58435.74
2023-02-03T03:17:24.688Z,58635.42
2023-02-03T03:18:27.291Z,58897.34
2023-02-03T03:19:29.754Z,57080.36
2023-02-03T03:20:32.337Z,57165.62
2023-02-03T03:21:34.751Z,57703.31
2023-02-03T03:22:37.204Z,57902.96
2023-02-03T03:23:39.844Z,57303.04
2023-02-03T03:24:42.357Z,56482.57
2023-02-03T03:25:44.829Z,54172.51
2023-02-03T03:26:47.218Z,57396.34
2023-02-03T03:28:56.950Z,55152.92
2023-02-03T03:29:59.399Z,59245.58
2023-02-03T03:32:14.892Z,57003.12
2023-02-03T03:33:17.448Z,57616.03
2023-02-03T03:34:20.776Z,62679.44
2023-02-03T03:35:23.254Z,64391.45
2023-02-03T03:36:25.755Z,66926.66
2023-02-03T03:37:28.279Z,70561.41
2023-02-03T03:38:30.696Z,70304.77
2023-02-03T03:39:33.091Z,84168.90
2023-02-03T03:40:35.519Z,81947.73
2023-02-03T03:41:38.130Z,68863.84
2023-02-03T03:42:43.540Z,64776.36
2023-02-03T03:43:46.067Z,63436.89
2023-02-03T03:44:48.672Z,65266.83
2023-02-03T03:45:51.096Z,65538.23
2023-02-03T03:46:53.490Z,63364.56
2023-02-03T03:47:55.705Z,62523.75
2023-02-03T03:48:57.972Z,63349.49
2023-02-03T03:50:00.244Z,64268.86
2023-02-03T03:52:09.495Z,63315.33
2023-02-03T03:53:11.715Z,56302.05
2023-02-03T03:55:24.137Z,58373.53
2023-02-03T03:56:26.773Z,58315.33
2023-02-03T03:57:29.309Z,58542.10
2023-02-03T03:58:31.830Z,56679.15
2023-02-03T03:59:34.272Z,53380.75
2023-02-03T04:00:36.524Z,57186.68
2023-02-03T04:01:39.162Z,59654.07
2023-02-03T04:02:41.725Z,60257.36
2023-02-03T04:04:59.703Z,60838.64
2023-02-03T04:06:02.328Z,61085.64
2023-02-03T04:07:04.851Z,60648.89
2023-02-03T04:08:07.313Z,59308.80
2023-02-03T04:09:09.791Z,59805.64
2023-02-03T04:10:12.182Z,58039.41
2023-02-03T04:11:14.695Z,58608.33
2023-02-03T04:12:17.140Z,56594.90
2023-02-03T04:13:19.537Z,57812.66
2023-02-03T04:14:21.974Z,58351.45
2023-02-03T04:16:37.281Z,59218.48
2023-02-03T04:17:39.473Z,59494.48
2023-02-03T04:18:41.980Z,55600.10
2023-02-03T04:19:44.529Z,51849.78
2023-02-03T04:20:47.478Z,54979.48
2023-02-03T04:21:50.114Z,58770.89
2023-02-03T04:22:52.519Z,57302.04
2023-02-03T04:26:13.131Z,66123.30
2023-02-03T04:27:15.376Z,51576.31
2023-02-03T04:28:17.650Z,47951.89
2023-02-03T04:29:20.207Z,48049.96
2023-02-03T04:30:22.627Z,47549.61
2023-02-03T04:31:25.096Z,48248.13
2023-02-03T04:32:27.811Z,48305.18
2023-02-03T04:33:30.247Z,47943.89
2023-02-03T04:34:32.801Z,48919.75
2023-02-03T04:35:35.393Z,50412.53
2023-02-03T04:36:37.592Z,50079.08
2023-02-03T04:37:39.892Z,52124.27
2023-02-03T04:38:42.327Z,54091.32
2023-02-03T04:39:44.600Z,53122.20
2023-02-03T04:40:46.856Z,50194.23
2023-02-03T04:43:05.217Z,49422.29
2023-02-03T04:44:07.703Z,49874.82
2023-02-03T04:45:10.153Z,49943.91
2023-02-03T04:46:12.737Z,48636.47
2023-02-03T04:47:15.052Z,48837.66
2023-02-03T04:48:17.615Z,48686.52
2023-02-03T04:49:20.079Z,49220.06
2023-02-03T04:50:22.527Z,48357.22
2023-02-03T04:51:24.940Z,49052.88
2023-02-03T04:52:27.443Z,48435.29
2023-02-03T04:54:45.874Z,52195.39
2023-02-03T04:55:48.125Z,54816.07
2023-02-03T04:56:50.360Z,52629.21
2023-02-03T04:58:55.592Z,52358.70
2023-02-03T04:59:58.031Z,53698.44
2023-02-03T05:01:00.708Z,51206.71
2023-02-03T05:02:02.988Z,52099.22
2023-02-03T05:03:05.620Z,52078.18
2023-02-03T05:04:08.265Z,52078.18
2023-02-03T05:05:10.622Z,53277.53
2023-02-03T05:06:12.798Z,52162.34
2023-02-03T05:07:15.241Z,52211.43
2023-02-03T05:08:17.767Z,53011.98
2023-02-03T05:09:20.210Z,51743.59
2023-02-03T05:11:38.290Z,53869.82
2023-02-03T05:12:40.788Z,57419.41
2023-02-03T05:13:43.200Z,57616.03
2023-02-03T05:14:45.847Z,59210.45
2023-02-03T05:15:48.117Z,59407.16
2023-02-03T05:16:50.394Z,58394.60
2023-02-03T05:17:52.604Z,55407.59
2023-02-03T05:18:55.132Z,58249.11
2023-02-03T05:19:57.710Z,59079.98
2023-02-03T05:21:00.125Z,56793.49
2023-02-03T05:23:09.701Z,56787.47
2023-02-03T05:24:12.086Z,57437.46
2023-02-03T05:26:22.425Z,56163.65
2023-02-03T05:27:24.904Z,54386.02
2023-02-03T05:28:27.431Z,54595.52
2023-02-03T05:29:30.018Z,57626.07
2023-02-03T05:30:32.528Z,57076.34
2023-02-03T05:32:51.117Z,56717.26
2023-02-03T05:33:53.648Z,56566.82
2023-02-03T05:34:56.051Z,57461.54
2023-02-03T05:35:58.736Z,58004.29
2023-02-03T05:37:01.231Z,56953.97
2023-02-03T05:38:03.629Z,56020.25
2023-02-03T05:39:06.122Z,56655.07
2023-02-03T05:40:08.600Z,58551.13
2023-02-03T05:41:11.000Z,58880.28
2023-02-03T05:42:13.233Z,59310.81
2023-02-03T05:43:15.448Z,58359.48
2023-02-03T05:44:17.721Z,56691.18
2023-02-03T05:45:19.930Z,55023.59
2023-02-03T05:46:22.233Z,53028.01
2023-02-03T05:47:24.354Z,52472.91
2023-02-03T05:48:32.745Z,51784.66
2023-02-03T05:49:35.282Z,51623.39
2023-02-03T05:50:38.795Z,51909.88
2023-02-03T05:51:41.776Z,58880.28
2023-02-03T05:52:44.258Z,58103.62
2023-02-03T05:53:46.795Z,51769.64
2023-02-03T05:54:49.318Z,52024.09
2023-02-03T05:55:51.755Z,52836.62
2023-02-03T05:56:55.438Z,54183.54
2023-02-03T05:57:57.920Z,52446.86
2023-02-03T05:59:00.353Z,51838.76
2023-02-03T06:01:10.289Z,53014.98
2023-02-03T06:02:12.902Z,53246.46
2023-02-03T06:03:15.348Z,51703.52
2023-02-03T06:04:17.856Z,51733.57
2023-02-03T06:05:20.157Z,52221.45
2023-02-03T06:07:38.532Z,52494.96
2023-02-03T06:08:40.966Z,51877.83
2023-02-03T06:09:43.192Z,52395.77
2023-02-03T06:10:45.411Z,52172.36
2023-02-03T06:11:47.944Z,52073.17
2023-02-03T06:12:50.745Z,52609.18
2023-02-03T06:13:53.339Z,53442.88
2023-02-03T06:14:55.717Z,55468.75
2023-02-03T06:15:58.184Z,54721.83
2023-02-03T06:17:00.671Z,58758.85
2023-02-03T06:18:03.357Z,52237.47
2023-02-03T06:19:05.865Z,52294.58
2023-02-03T06:20:08.068Z,53146.25
2023-02-03T06:21:10.433Z,54565.45
2023-02-03T06:22:12.589Z,52214.43
2023-02-03T06:24:31.012Z,56208.78
2023-02-03T06:25:33.277Z,54777.97
2023-02-03T06:26:35.416Z,60976.20
2023-02-03T06:27:37.693Z,60247.32
2023-02-03T06:28:39.981Z,52475.92
2023-02-03T06:29:42.414Z,70938.84
2023-02-03T06:30:45.034Z,82268.72
2023-02-03T06:31:47.989Z,91462.92
2023-02-03T06:32:50.594Z,91313.19
2023-02-03T06:33:53.167Z,83795.25
2023-02-03T06:34:55.576Z,65143.20
2023-02-03T06:35:58.000Z,73701.83
2023-02-03T06:37:00.471Z,81548.05
2023-02-03T06:38:02.958Z,89168.98
2023-02-03T06:39:05.576Z,92628.60
2023-02-03T06:40:08.240Z,96274.53
2023-02-03T06:41:13.465Z,95755.94
2023-02-03T06:42:15.872Z,99517.22
2023-02-03T06:43:18.042Z,104970.77
2023-02-03T06:45:36.530Z,109000.72
2023-02-03T06:46:38.732Z,108740.61
2023-02-03T06:47:40.912Z,111472.66
2023-02-03T06:48:43.328Z,110041.36
2023-02-03T06:49:46.229Z,108870.66
2023-02-03T06:50:48.997Z,109521.00
2023-02-03T06:51:51.500Z,110041.36
2023-02-03T06:52:54.254Z,110561.77
2023-02-03T06:53:56.739Z,110691.89
2023-02-03T06:54:59.360Z,109651.09
2023-02-03T06:56:01.806Z,103281.98
2023-02-03T06:57:04.288Z,100425.63
2023-02-03T06:58:06.763Z,87600.98
2023-02-03T06:59:09.204Z,79836.75
2023-02-03T07:00:13.913Z,72523.50
2023-02-03T07:01:15.989Z,82580.64
2023-02-03T07:03:34.764Z,71911.31
2023-02-03T07:04:37.390Z,61940.21
2023-02-03T07:05:39.907Z,55816.69
2023-02-03T07:06:42.354Z,58260.14
2023-02-03T07:07:44.754Z,53056.07
2023-02-03T07:08:47.695Z,50870.19
2023-02-03T07:09:50.165Z,51158.63
2023-02-03T07:10:52.575Z,50672.90
2023-02-03T07:11:55.041Z,51196.69
2023-02-03T07:12:57.485Z,51146.61
2023-02-03T07:13:59.983Z,51821.73
2023-02-03T07:15:02.452Z,51783.66
2023-02-03T07:16:06.065Z,56118.53
2023-02-03T07:17:11.508Z,74014.09
2023-02-03T07:18:17.983Z,92645.80
2023-02-03T07:19:17.860Z,95755.94
2023-02-03T07:20:20.367Z,94848.58
2023-02-03T07:21:22.961Z,97960.41
2023-02-03T07:22:25.438Z,98998.21
2023-02-03T07:23:27.874Z,105750.45
2023-02-03T07:24:30.378Z,104061.34
2023-02-03T07:25:33.023Z,104580.98
2023-02-03T07:26:35.677Z,105880.41
2023-02-03T07:27:38.370Z,108740.61
2023-02-03T07:29:56.747Z,112253.59
2023-02-03T07:30:59.325Z,112513.92
2023-02-03T07:32:02.299Z,110301.56
2023-02-03T07:33:04.758Z,109260.86
2023-02-03T07:34:07.272Z,107050.25
2023-02-03T07:35:09.715Z,105490.55
2023-02-03T07:36:12.174Z,102113.23
2023-02-03T07:37:14.878Z,102113.23
2023-02-03T07:38:17.429Z,90607.09
2023-02-03T07:39:19.780Z,83098.55
2023-02-03T07:40:22.273Z,93819.92
2023-02-03T07:41:24.717Z,93157.92
2023-02-03T07:42:27.399Z,96015.23
2023-02-03T07:43:31.619Z,92355.37
2023-02-03T07:44:34.116Z,91649.09
2023-02-03T07:45:36.496Z,80372.47
2023-02-03T07:46:38.979Z,76193.58
2023-02-03T07:48:57.472Z,94198.55
2023-02-03T07:49:59.926Z,93324.94
2023-02-03T07:51:02.389Z,81578.33
2023-02-03T07:52:04.808Z,71583.11
2023-02-03T07:53:07.467Z,82766.39
2023-02-03T07:54:09.955Z,92316.91
2023-02-03T07:55:12.331Z,101853.55
2023-02-03T07:56:14.764Z,98090.11
2023-02-03T07:57:17.027Z,98479.27
2023-02-03T07:58:19.557Z,91621.77
2023-02-03T07:59:21.833Z,92987.89
2023-02-03T08:00:24.128Z,88603.78
2023-02-03T08:01:41.809Z,83600.36
2023-02-03T08:02:44.081Z,81022.28
2023-02-03T08:03:46.614Z,86272.05
2023-02-03T08:04:49.042Z,90627.32
2023-02-03T08:05:51.300Z,87714.19
2023-02-03T08:06:53.465Z,83433.76
2023-02-03T08:07:55.702Z,75737.03
2023-02-03T08:08:58.100Z,75195.89
2023-02-03T08:10:00.261Z,86696.45
2023-02-03T08:11:02.783Z,83670.04
2023-02-03T08:12:05.164Z,92915.02
2023-02-03T08:13:07.582Z,96663.52
2023-02-03T08:14:10.185Z,91589.39
2023-02-03T08:15:12.574Z,97700.99
2023-02-03T08:16:15.101Z,102502.78
2023-02-03T08:17:17.634Z,100295.84
2023-02-03T08:18:20.044Z,97182.22
2023-02-03T08:20:30.794Z,97311.91
2023-02-03T08:21:33.411Z,95235.39
2023-02-03T08:22:35.808Z,92811.78
2023-02-03T08:23:38.272Z,91283.85
2023-02-03T08:24:40.919Z,90820.53
2023-02-03T08:25:43.405Z,96144.87
2023-02-03T08:26:45.996Z,102762.50
2023-02-03T08:28:56.112Z,101593.90
2023-02-03T08:29:58.705Z,101204.44
2023-02-03T08:31:01.350Z,102762.50
2023-02-03T08:32:05.407Z,101593.90
2023-02-03T08:33:07.982Z,105750.45
2023-02-03T08:35:26.521Z,112383.76
2023-02-03T08:36:28.967Z,114076.33
2023-02-03T08:37:31.526Z,114857.75
2023-02-03T08:38:33.993Z,115899.87
2023-02-03T08:39:36.286Z,116551.34
2023-02-03T08:40:38.947Z,116811.96
2023-02-03T08:41:41.446Z,116942.28
2023-02-03T08:42:43.906Z,116942.28
2023-02-03T08:43:46.335Z,116943.30
2023-02-03T08:44:49.016Z,116943.30
2023-02-03T08:45:51.711Z,116943.30
2023-02-03T08:46:54.289Z,116943.30
2023-02-03T08:47:56.679Z,116943.30
2023-02-03T08:48:59.064Z,116943.30
2023-02-03T08:50:01.664Z,116943.30
2023-02-03T08:51:04.337Z,116943.30
2023-02-03T08:53:22.721Z,116943.30
2023-02-03T08:54:25.130Z,116943.30
2023-02-03T08:55:27.556Z,116943.30
2023-02-03T08:56:30.183Z,116943.30
2023-02-03T08:57:32.370Z,116943.30
2023-02-03T08:58:34.617Z,116943.30
2023-02-03T08:59:36.845Z,116943.30
2023-02-03T09:00:39.081Z,116943.30
2023-02-03T09:01:41.515Z,116943.30
2023-02-03T09:02:43.697Z,116943.30
2023-02-03T09:03:45.890Z,116943.30
2023-02-03T09:06:04.067Z,116943.30
2023-02-03T09:07:06.755Z,116943.30
2023-02-03T09:08:09.000Z,116943.30
2023-02-03T09:09:11.230Z,116943.30
2023-02-03T09:10:13.471Z,116943.30
2023-02-03T09:11:15.719Z,116943.30
2023-02-03T09:12:17.965Z,116943.30
2023-02-03T09:13:20.308Z,116943.30
2023-02-03T09:14:22.553Z,116943.30
2023-02-03T09:15:24.945Z,116943.30
2023-02-03T09:16:27.433Z,116943.30
2023-02-03T09:17:30.089Z,116943.30
2023-02-03T09:18:32.534Z,116943.30
2023-02-03T09:19:36.567Z,116943.30
2023-02-03T09:20:39.135Z,116943.30
2023-02-03T09:22:52.227Z,116943.30
2023-02-03T09:23:54.804Z,116943.30
2023-02-03T09:24:57.262Z,116943.30
2023-02-03T09:25:59.727Z,116943.30
2023-02-03T09:27:02.190Z,116943.30
2023-02-03T09:28:04.818Z,116943.30
2023-02-03T09:29:07.402Z,116943.30
2023-02-03T09:30:09.879Z,116943.30
2023-02-03T09:32:28.320Z,116943.30
2023-02-03T09:33:30.974Z,116943.30
2023-02-03T09:34:33.516Z,116943.30
2023-02-03T09:35:36.018Z,116943.30
2023-02-03T09:36:38.660Z,116943.30
2023-02-03T09:37:41.203Z,116943.30
2023-02-03T09:38:43.784Z,116943.30
2023-02-03T09:39:46.455Z,116943.30
2023-02-03T09:40:48.988Z,116943.30
2023-02-03T09:41:51.472Z,116943.30
2023-02-03T09:42:53.962Z,116943.30
2023-02-03T09:43:59.854Z,116943.30
2023-02-03T09:45:02.300Z,116943.30
2023-02-03T09:46:04.795Z,116943.30
2023-02-03T09:47:22.515Z,116943.30
2023-02-03T09:48:24.828Z,116943.30
2023-02-03T09:49:27.810Z,116943.30
2023-02-03T09:50:30.683Z,116943.30
2023-02-03T09:51:33.394Z,116943.30
2023-02-03T09:52:35.905Z,116943.30
2023-02-03T09:53:38.110Z,116943.30
2023-02-03T09:54:40.994Z,116943.30
2023-02-03T09:55:43.462Z,116943.30
2023-02-03T09:56:46.055Z,116943.30
2023-02-03T09:57:48.525Z,116943.30
2023-02-03T09:58:51.009Z,116943.30
2023-02-03T09:59:53.537Z,116943.30
2023-02-03T10:00:56.068Z,116943.30
2023-02-03T10:02:01.972Z,116943.30
2023-02-03T10:03:04.437Z,116943.30
2023-02-03T10:04:06.985Z,116943.30
2023-02-03T10:05:09.580Z,116943.30
2023-02-03T10:06:12.078Z,116943.30
2023-02-03T10:07:14.491Z,116943.30
2023-02-03T10:08:16.978Z,116943.30
2023-02-03T10:09:19.207Z,116943.30
2023-02-03T10:10:21.831Z,116943.30
2023-02-03T10:11:24.048Z,116943.30
2023-02-03T10:12:26.530Z,116943.30
2023-02-03T10:14:44.871Z,116943.30
2023-02-03T10:15:47.456Z,116943.30
2023-02-03T10:16:50.034Z,116943.30
2023-02-03T10:17:52.599Z,116943.30
2023-02-03T10:18:55.055Z,116943.30
2023-02-03T10:19:57.495Z,116943.30
2023-02-03T10:21:00.072Z,116943.30
2023-02-03T10:22:02.615Z,116943.30
2023-02-03T10:23:05.058Z,116943.30
2023-02-03T10:24:07.580Z,116943.30
2023-02-03T10:25:09.826Z,116943.30
2023-02-03T10:26:12.120Z,116943.30
2023-02-03T10:27:14.331Z,116943.30
2023-02-03T10:28:16.615Z,116943.30
2023-02-03T10:30:29.507Z,116943.30
2023-02-03T10:31:34.534Z,116943.30
2023-02-03T10:32:35.813Z,116943.30
2023-02-03T10:33:38.112Z,116943.30
2023-02-03T10:34:40.367Z,116943.30
2023-02-03T10:36:58.540Z,116943.30
2023-02-03T10:38:00.933Z,116943.30
2023-02-03T10:39:03.351Z,116943.30
2023-02-03T10:40:05.515Z,116943.30
2023-02-03T10:41:07.852Z,116943.30
2023-02-03T10:42:10.243Z,116943.30
2023-02-03T10:43:12.513Z,116943.30
2023-02-03T10:44:14.747Z,116943.30
2023-02-03T10:45:17.276Z,116943.30
2023-02-03T10:46:19.839Z,116943.30
2023-02-03T10:47:22.528Z,116943.30
2023-02-03T10:48:37.204Z,116943.30
2023-02-03T10:49:39.506Z,116943.30
2023-02-03T10:50:41.828Z,116943.30
2023-02-03T10:51:44.056Z,116943.30
2023-02-03T10:52:46.424Z,116943.30
2023-02-03T10:53:48.751Z,116943.30
2023-02-03T10:54:51.242Z,116943.30
2023-02-03T10:55:53.709Z,116943.30
2023-02-03T10:56:56.179Z,116942.28
2023-02-03T10:57:58.761Z,116942.28
2023-02-03T10:59:01.147Z,116942.28
2023-02-03T11:00:03.634Z,116811.96
2023-02-03T11:01:06.261Z,116811.96
2023-02-03T11:03:25.011Z,116160.45
2023-02-03T11:04:27.650Z,116290.75
2023-02-03T11:05:30.134Z,116290.75
2023-02-03T11:06:32.570Z,116290.75
2023-02-03T11:07:34.810Z,115899.87
2023-02-03T11:08:37.483Z,116030.16
2023-02-03T11:09:39.672Z,115899.87
2023-02-03T11:10:41.966Z,115639.32
2023-02-03T11:11:44.172Z,115509.05
2023-02-03T11:12:46.371Z,115378.78
2023-02-03T11:13:48.933Z,114597.26
2023-02-03T11:15:06.747Z,114597.26
2023-02-03T11:16:09.357Z,114597.26
2023-02-03T11:17:14.584Z,114076.33
2023-02-03T11:18:16.997Z,114727.50
2023-02-03T11:19:19.269Z,114597.26
2023-02-03T11:20:21.465Z,114597.26
2023-02-03T11:21:23.719Z,114467.02
2023-02-03T11:22:25.995Z,114206.55
2023-02-03T11:23:28.229Z,114988.00
2023-02-03T11:24:30.474Z,114206.55
2023-02-03T11:25:33.026Z,114076.33
2023-02-03T11:26:35.621Z,114076.33
2023-02-03T11:27:37.978Z,114206.55
2023-02-03T11:28:40.472Z,113946.10
2023-02-03T11:30:59.094Z,113555.46
2023-02-03T11:32:01.854Z,112383.76
2023-02-03T11:33:04.391Z,112123.42
2023-02-03T11:34:06.616Z,112774.28
2023-02-03T11:35:09.066Z,112644.11
2023-02-03T11:36:11.487Z,112644.11
2023-02-03T11:37:14.296Z,111993.27
2023-02-03T11:38:16.802Z,111732.95
2023-02-03T11:39:19.348Z,112513.92
2023-02-03T11:40:21.811Z,111212.39
2023-02-03T11:41:24.249Z,111472.66
2023-02-03T11:42:26.727Z,111993.27
2023-02-03T11:44:45.388Z,112383.76
2023-02-03T11:45:48.033Z,112644.11
2023-02-03T11:46:50.625Z,113164.86
2023-02-03T11:47:53.220Z,114336.78
2023-02-03T11:48:55.605Z,113555.46
2023-02-03T11:49:58.331Z,112774.28
2023-02-03T11:51:01.066Z,113295.05
2023-02-03T11:52:03.624Z,114076.33
2023-02-03T11:53:06.098Z,114467.02
2023-02-03T11:55:24.464Z,114467.02
2023-02-03T11:56:27.127Z,114467.02
2023-02-03T11:57:29.652Z,113555.46
2023-02-03T11:58:32.157Z,112774.28
2023-02-03T11:59:34.698Z,112774.28
2023-02-03T12:00:37.177Z,113034.66
2023-02-03T12:01:39.976Z,113946.10
2023-02-03T12:02:42.291Z,113685.67
2023-02-03T12:03:44.645Z,113295.05
2023-02-03T12:04:47.236Z,113164.86
2023-02-03T12:05:49.773Z,112774.28
2023-02-03T12:06:52.453Z,113685.67
2023-02-03T12:07:54.939Z,113164.86
2023-02-03T12:08:57.490Z,114076.33
2023-02-03T12:09:59.701Z,113425.25
2023-02-03T12:11:02.184Z,113555.46
2023-02-03T12:12:05.200Z,113164.86
2023-02-03T12:13:07.939Z,114076.33
2023-02-03T12:14:10.371Z,114597.26
2023-02-03T12:16:28.831Z,115639.32
2023-02-03T12:17:31.430Z,116030.16
2023-02-03T12:18:33.924Z,116160.45
2023-02-03T12:19:36.339Z,115769.59
2023-02-03T12:20:38.826Z,115248.52
2023-02-03T12:21:41.508Z,116160.45
2023-02-03T12:22:44.034Z,116421.05
2023-02-03T12:23:46.611Z,116030.16
2023-02-03T12:26:04.969Z,115378.78
2023-02-03T12:27:07.509Z,116030.16
2023-02-03T12:28:12.813Z,115639.32
2023-02-03T12:29:14.730Z,115378.78
2023-02-03T12:30:17.482Z,116421.05
2023-02-03T12:31:20.181Z,115899.87
2023-02-03T12:32:22.830Z,115899.87
2023-02-03T12:33:25.481Z,115899.87
2023-02-03T12:34:27.659Z,114727.50
2023-02-03T12:35:31.899Z,116160.45
2023-02-03T12:36:33.772Z,116942.28
2023-02-03T12:37:36.038Z,116943.30
2023-02-03T12:38:38.344Z,116943.30
2023-02-03T12:39:40.489Z,116943.30
2023-02-03T12:40:42.869Z,116943.30
2023-02-03T12:41:45.693Z,116943.30
2023-02-03T12:42:48.272Z,116943.30
2023-02-03T12:45:06.786Z,116943.30
2023-02-03T12:46:09.086Z,116943.30
2023-02-03T12:47:11.481Z,116943.30
2023-02-03T12:48:13.723Z,116943.30
2023-02-03T12:49:16.098Z,116943.30
2023-02-03T12:50:18.358Z,116943.30
2023-02-03T12:51:20.855Z,116943.30
2023-02-03T12:52:23.337Z,116943.30
2023-02-03T12:53:27.742Z,116943.30
2023-02-03T12:54:30.043Z,116943.30
2023-02-03T12:55:32.663Z,116943.30
2023-02-03T12:56:35.319Z,116943.30